Česky Dansk Deutsch English Español Suomi Français Magyar Italiano Nederlands norsk Polski Português svenska Türkçe

 

Het Weer

Szentkiralyszabadja (Hongarije)

05:45, 14 september 2004 (GMT)

NWNNE
WE
SWSSE
Home            
Szentkiralyszabadja Siofok Papa Taszar Kaposvar Tokol Budaors Budapest Met Center Szombathely Budapest / Ferihegy Pecs / Pogany Punitz-Gussing Kecskemet Nitra Bratislava Ivanka Murska Sobota Varazdin Niederosterreich / Wiener Neustadt-Ost Flugplatz Wien / Schwechat-Flughafen Niederosterreich / Lugplatz Voslau Szolnok Piestany Piestany

Om een weerknop op uw website of weblog te plaatsen, copieer onderstaande code en plak die in uw pagina. In het eerste vakje staat HTML-code, in het tweede vakje UBB-code.


Add to Google

Details

Visibility: 6000 m, 6.0 km, 19685 ft, 3.7 miles
Temperature:13°C, 55°F
Dew-point:11°C, 52°F
Atmospheric pressure:1019 hPa, 764.3 mmHg, 30.09 inHg, 1.006 atm
Relative humidity:87.6 %
METAR:LHSA 140545Z 00000KT 6000 13/11 Q1019

Snelkoppelingen

Actuele weersinformatie van de hele wereld. Voeg locaties toe met het plus (+) symbool. Deze snelkoppelingen kunnen worden toegevoegd aan Google.

Lid van de Technetium groep

website free tracking
StatCounter NetStat W3C Validator

28-05-2020 04:37:56
astro.technetium.be money.technetium.be phote.technetium.be tafeltennistafel.technetium.be www.ligfiets.net